aviador You're here:

KGPH Decoded Metar

in
Report Time2017-08-16 19:35:00
UTC Time2017-08-16 19:31:53
Flight Rules vfr VFR
Wind230° at 10 kt
W.Decomp.*RWY 18: 6.4 kt HW 7.7 kt RCW
W.Rank230° ranks 30
Current wind is above 230° avg. (7.1)
Visibility9999 m
Phenomena:N/A
Clouds:N/A
Expected CloudBase > 4,000 ft AGL from Temp-Dew spread
CeilingNone
Temp30°C
Dew Point20°C (55% RH)
Heat Index31.9°C
QNH1009 hPa
Raw Report
KGPH 161935Z AUTO 23010KT 10SM CLR 30/20 A2980 RMK AO2 LTG DSNT
SE=

Extra information for KGPH:More info

Social comments